Time;durP1;ratioP1;P1;durP2;ratioP2;P2;SDS_P1;SDS_P2;PMS_P1;PMS_P2;Temp;Humidity;BMP_temperature;BMP_pressure;BME280_temperature;BME280_humidity;BME280_pressure;Samples;Min_cycle;Max_cycle;Signal;HPM_P1;HPM_P2
2024/02/06 00:01:12;;;;;;;3.75;2.40;;;;;;;;;;5015279;28;20017;-61
2024/02/06 00:03:37;;;;;;;3.97;2.40;;;;;;;;;;5014727;28;20386;-61
2024/02/06 00:06:03;;;;;;;3.22;2.03;;;;;;;;;;5014699;28;20480;-61
2024/02/06 00:08:28;;;;;;;4.93;2.83;;;;;;;;;;5014710;28;20515;-61
2024/02/06 00:10:53;;;;;;;3.20;2.38;;;;;;;;;;5015224;28;20038;-62
2024/02/06 00:13:19;;;;;;;5.25;2.60;;;;;;;;;;5014862;28;20045;-62
2024/02/06 00:15:45;;;;;;;7.75;2.80;;;;;;;;;;5014755;28;20030;-61
2024/02/06 00:18:12;;;;;;;6.03;2.58;;;;;;;;;;5014499;28;20129;-68
2024/02/06 00:20:38;;;;;;;3.55;2.15;;;;;;;;;;5014900;28;20034;-68
2024/02/06 00:23:03;;;;;;;4.43;2.30;;;;;;;;;;4997211;28;20024;-68
2024/02/06 00:25:28;;;;;;;3.53;2.33;;;;;;;;;;5014726;28;20401;-68
2024/02/06 00:27:54;;;;;;;4.75;2.58;;;;;;;;;;5014333;28;20149;-68
2024/02/06 00:30:19;;;;;;;5.00;2.85;;;;;;;;;;5014907;28;20026;-68
2024/02/06 00:32:44;;;;;;;5.43;2.30;;;;;;;;;;5014644;28;20025;-67
2024/02/06 00:35:11;;;;;;;6.55;2.47;;;;;;;;;;5014245;28;20061;-70
2024/02/06 00:37:37;;;;;;;4.65;2.83;;;;;;;;;;5014875;28;20021;-69
2024/02/06 00:40:02;;;;;;;3.70;2.65;;;;;;;;;;5014429;28;20512;-69
2024/02/06 00:42:27;;;;;;;4.07;2.28;;;;;;;;;;5014348;28;20029;-69
2024/02/06 00:44:54;;;;;;;3.90;2.10;;;;;;;;;;5014089;28;20509;-68
2024/02/06 00:47:19;;;;;;;6.32;2.60;;;;;;;;;;4996645;28;20029;-69
2024/02/06 00:49:44;;;;;;;6.05;2.45;;;;;;;;;;5014024;28;20476;-68
2024/02/06 00:52:10;;;;;;;4.95;2.55;;;;;;;;;;5014561;28;20033;-69
2024/02/06 00:54:35;;;;;;;4.63;2.42;;;;;;;;;;5013838;28;20060;-68
2024/02/06 00:57:01;;;;;;;4.25;2.10;;;;;;;;;;5013744;28;20479;-68
2024/02/06 00:59:27;;;;;;;4.80;2.72;;;;;;;;;;5014132;28;20030;-69
2024/02/06 01:01:53;;;;;;;5.95;2.70;;;;;;;;;;5013958;28;20540;-69
2024/02/06 01:04:18;;;;;;;4.03;2.17;;;;;;;;;;5013866;28;20022;-69
2024/02/06 01:06:44;;;;;;;4.03;2.03;;;;;;;;;;5012645;28;20470;-69
2024/02/06 01:09:11;;;;;;;4.18;2.60;;;;;;;;;;5013890;28;20369;-68
2024/02/06 01:11:36;;;;;;;5.50;1.90;;;;;;;;;;4996808;28;20332;-68
2024/02/06 01:14:01;;;;;;;5.20;2.50;;;;;;;;;;5013644;28;20029;-68
2024/02/06 01:16:27;;;;;;;3.85;2.35;;;;;;;;;;5013819;28;20117;-68
2024/02/06 01:18:52;;;;;;;5.85;2.40;;;;;;;;;;5013614;28;20584;-68
2024/02/06 01:21:17;;;;;;;2.60;2.40;;;;;;;;;;5014123;28;20025;-68
2024/02/06 01:23:43;;;;;;;7.38;2.78;;;;;;;;;;5014082;28;20045;-68
2024/02/06 01:26:14;;;;;;;4.07;2.35;;;;;;;;;;4996379;28;20034;-67
2024/02/06 01:28:39;;;;;;;7.55;2.63;;;;;;;;;;5014220;28;20030;-66
2024/02/06 01:31:04;;;;;;;2.30;1.80;;;;;;;;;;4995986;28;20026;-67
2024/02/06 01:33:30;;;;;;;2.58;1.50;;;;;;;;;;5013570;28;20496;-67
2024/02/06 01:35:55;;;;;;;5.60;2.72;;;;;;;;;;5014050;28;20032;-60
2024/02/06 01:38:22;;;;;;;4.53;2.45;;;;;;;;;;5014079;28;20029;-61
2024/02/06 01:40:47;;;;;;;3.53;2.22;;;;;;;;;;5013946;28;20045;-60
2024/02/06 01:43:13;;;;;;;8.27;3.05;;;;;;;;;;5013733;28;20026;-69
2024/02/06 01:45:38;;;;;;;8.57;3.05;;;;;;;;;;5013355;28;20386;-69
2024/02/06 01:48:05;;;;;;;8.90;3.38;;;;;;;;;;5012484;28;20037;-69
2024/02/06 01:50:30;;;;;;;6.80;3.20;;;;;;;;;;5012733;28;20044;-69
2024/02/06 01:52:56;;;;;;;7.85;3.80;;;;;;;;;;5013852;28;20026;-69
2024/02/06 01:55:21;;;;;;;7.15;3.10;;;;;;;;;;5013840;28;20536;-69
2024/02/06 01:57:47;;;;;;;5.57;3.38;;;;;;;;;;5013958;28;20026;-69
2024/02/06 02:00:13;;;;;;;5.47;2.83;;;;;;;;;;5015717;28;20022;-68
2024/02/06 02:02:39;;;;;;;6.53;3.53;;;;;;;;;;5017311;28;20021;-68
2024/02/06 02:05:06;;;;;;;6.30;3.58;;;;;;;;;;5017259;28;20104;-69
2024/02/06 02:07:32;;;;;;;10.52;4.05;;;;;;;;;;5016945;28;20112;-69
2024/02/06 02:09:58;;;;;;;5.28;2.25;;;;;;;;;;5017130;28;20076;-69
2024/02/06 02:12:23;;;;;;;8.20;3.60;;;;;;;;;;5017107;28;20029;-68
2024/02/06 02:14:49;;;;;;;7.55;3.28;;;;;;;;;;5017272;28;20470;-61
2024/02/06 02:17:14;;;;;;;7.53;3.95;;;;;;;;;;5017073;28;20543;-59
2024/02/06 02:19:40;;;;;;;4.25;3.05;;;;;;;;;;5016728;28;20033;-58
2024/02/06 02:22:05;;;;;;;7.80;3.85;;;;;;;;;;5016721;28;20029;-58
2024/02/06 02:24:31;;;;;;;7.63;3.15;;;;;;;;;;5017116;28;20021;-59
2024/02/06 02:26:57;;;;;;;7.38;3.42;;;;;;;;;;5016712;28;20470;-59
2024/02/06 02:29:23;;;;;;;3.70;2.90;;;;;;;;;;5017278;28;20041;-59
2024/02/06 02:31:49;;;;;;;6.03;2.72;;;;;;;;;;5037907;23;20057;-66
2024/02/06 02:34:14;;;;;;;9.43;3.42;;;;;;;;;;5065050;23;20260;-65
2024/02/06 02:36:40;;;;;;;7.95;3.05;;;;;;;;;;5061960;23;20053;-65
2024/02/06 02:41:40;;;;;;;3.92;2.90;;;;;;;;;;5017443;23;20052;-58
2024/02/06 02:44:06;;;;;;;6.90;3.97;;;;;;;;;;4997182;28;20030;-59
2024/02/06 02:46:31;;;;;;;6.20;3.63;;;;;;;;;;4996588;28;20092;-59
2024/02/06 02:48:57;;;;;;;12.57;4.72;;;;;;;;;;4996886;28;20030;-60
2024/02/06 02:51:22;;;;;;;7.10;3.33;;;;;;;;;;4996829;28;20470;-60
2024/02/06 02:53:48;;;;;;;10.25;3.95;;;;;;;;;;4996094;28;20042;-60
2024/02/06 02:56:13;;;;;;;8.13;4.18;;;;;;;;;;4996222;28;20065;-59
2024/02/06 02:58:39;;;;;;;9.40;3.65;;;;;;;;;;4996354;28;20121;-59
2024/02/06 03:01:04;;;;;;;9.13;4.03;;;;;;;;;;4996559;28;20105;-61
2024/02/06 03:03:29;;;;;;;12.45;3.47;;;;;;;;;;4996966;28;20044;-61
2024/02/06 03:05:55;;;;;;;11.93;4.90;;;;;;;;;;4996567;28;20039;-60
2024/02/06 03:08:20;;;;;;;8.52;3.30;;;;;;;;;;4996794;28;20034;-61
2024/02/06 03:10:45;;;;;;;8.30;4.32;;;;;;;;;;4995824;28;20038;-61
2024/02/06 03:13:11;;;;;;;9.98;4.35;;;;;;;;;;4996195;28;20105;-60
2024/02/06 03:15:36;;;;;;;6.75;3.08;;;;;;;;;;4995695;28;20344;-59
2024/02/06 03:18:02;;;;;;;7.47;3.83;;;;;;;;;;4996534;28;20093;-59
2024/02/06 03:20:28;;;;;;;4.80;2.92;;;;;;;;;;4996481;28;20058;-59
2024/02/06 03:22:53;;;;;;;6.65;3.05;;;;;;;;;;4996530;28;20530;-59
2024/02/06 03:25:21;;;;;;;7.68;3.22;;;;;;;;;;4995833;28;20430;-59
2024/02/06 03:27:46;;;;;;;6.82;3.28;;;;;;;;;;4996139;28;20026;-59
2024/02/06 03:30:12;;;;;;;6.45;3.03;;;;;;;;;;4995822;28;20451;-59
2024/02/06 03:32:37;;;;;;;6.57;2.58;;;;;;;;;;4995156;28;20154;-59
2024/02/06 03:35:03;;;;;;;4.97;2.85;;;;;;;;;;4996209;28;20054;-58
2024/02/06 03:37:29;;;;;;;5.45;3.08;;;;;;;;;;4995563;28;20054;-58
2024/02/06 03:39:54;;;;;;;6.68;3.63;;;;;;;;;;4995636;28;20081;-58
2024/02/06 03:42:19;;;;;;;5.60;3.25;;;;;;;;;;5011549;28;20033;-58
2024/02/06 03:44:45;;;;;;;3.38;2.38;;;;;;;;;;5015115;28;20088;-58
2024/02/06 03:47:10;;;;;;;10.77;4.05;;;;;;;;;;5015077;28;20034;-58
2024/02/06 03:49:35;;;;;;;8.70;3.80;;;;;;;;;;5015407;28;20013;-57
2024/02/06 03:52:01;;;;;;;7.90;3.55;;;;;;;;;;5015249;28;20030;-60
2024/02/06 03:54:26;;;;;;;7.60;3.63;;;;;;;;;;5015122;28;20038;-60
2024/02/06 03:56:51;;;;;;;7.50;3.88;;;;;;;;;;5015548;28;20026;-60
2024/02/06 03:59:17;;;;;;;5.95;2.97;;;;;;;;;;5013654;28;20496;-60
2024/02/06 04:01:44;;;;;;;4.38;3.10;;;;;;;;;;5014843;28;20035;-58
2024/02/06 04:04:09;;;;;;;4.75;3.60;;;;;;;;;;5014763;28;20026;-60
2024/02/06 04:06:35;;;;;;;7.32;3.40;;;;;;;;;;5014749;28;20105;-60
2024/02/06 04:09:01;;;;;;;3.67;2.75;;;;;;;;;;5014675;28;20042;-60
2024/02/06 04:11:26;;;;;;;6.05;3.38;;;;;;;;;;5014983;28;20061;-61
2024/02/06 04:13:51;;;;;;;3.90;2.78;;;;;;;;;;5014876;28;20034;-61
2024/02/06 04:16:17;;;;;;;8.02;3.03;;;;;;;;;;5015115;28;20048;-61
2024/02/06 04:18:42;;;;;;;7.50;3.53;;;;;;;;;;5030063;28;20088;-61
2024/02/06 04:21:08;;;;;;;6.00;2.78;;;;;;;;;;5014479;28;20561;-61
2024/02/06 04:23:33;;;;;;;7.07;3.53;;;;;;;;;;5014402;28;20022;-59
2024/02/06 04:25:59;;;;;;;6.78;3.05;;;;;;;;;;5014602;28;20384;-60
2024/02/06 04:28:24;;;;;;;6.00;3.45;;;;;;;;;;5014366;28;20034;-60
2024/02/06 04:30:50;;;;;;;5.50;3.53;;;;;;;;;;5014829;28;20041;-59
2024/02/06 04:33:15;;;;;;;10.73;3.42;;;;;;;;;;5014573;28;20041;-59
2024/02/06 04:35:41;;;;;;;7.88;3.55;;;;;;;;;;5029922;28;20117;-59
2024/02/06 04:38:06;;;;;;;5.95;3.22;;;;;;;;;;5014477;28;20033;-59
2024/02/06 04:40:31;;;;;;;6.00;3.22;;;;;;;;;;5031609;28;20025;-59
2024/02/06 04:42:57;;;;;;;4.15;2.67;;;;;;;;;;5034048;28;20091;-59
2024/02/06 04:45:22;;;;;;;7.50;3.20;;;;;;;;;;5034101;28;20029;-59
2024/02/06 04:47:48;;;;;;;7.55;2.78;;;;;;;;;;5034098;28;20048;-59
2024/02/06 04:50:13;;;;;;;7.05;3.00;;;;;;;;;;5033586;28;20022;-59
2024/02/06 04:52:38;;;;;;;7.15;2.88;;;;;;;;;;5034019;28;20037;-58
2024/02/06 04:55:04;;;;;;;6.28;3.00;;;;;;;;;;5034211;28;20065;-58
2024/02/06 04:57:30;;;;;;;5.03;3.10;;;;;;;;;;5033955;28;20029;-57
2024/02/06 04:59:55;;;;;;;5.28;3.13;;;;;;;;;;5034206;28;20037;-57
2024/02/06 05:02:22;;;;;;;5.65;3.30;;;;;;;;;;5049018;28;20021;-57
2024/02/06 05:04:47;;;;;;;8.90;3.15;;;;;;;;;;5033614;28;20030;-57
2024/02/06 05:07:13;;;;;;;9.13;2.97;;;;;;;;;;5033153;28;20043;-57
2024/02/06 05:09:38;;;;;;;5.70;2.67;;;;;;;;;;5033293;28;20033;-57
2024/02/06 05:12:04;;;;;;;8.82;2.80;;;;;;;;;;5033269;28;20036;-59
2024/02/06 05:14:29;;;;;;;7.18;2.63;;;;;;;;;;5033243;28;20025;-59
2024/02/06 05:16:55;;;;;;;7.20;2.95;;;;;;;;;;5033282;28;20033;-59
2024/02/06 05:19:20;;;;;;;5.13;2.97;;;;;;;;;;5033205;28;20500;-58
2024/02/06 05:21:46;;;;;;;5.80;2.88;;;;;;;;;;5033631;28;20029;-57
2024/02/06 05:24:11;;;;;;;6.88;3.55;;;;;;;;;;5033358;28;20034;-55
2024/02/06 05:26:37;;;;;;;8.82;3.67;;;;;;;;;;5033899;28;20033;-55
2024/02/06 05:29:02;;;;;;;7.18;3.78;;;;;;;;;;5033906;28;20037;-55
2024/02/06 05:31:27;;;;;;;9.82;3.65;;;;;;;;;;5033356;28;20113;-55
2024/02/06 05:33:53;;;;;;;6.85;3.75;;;;;;;;;;5033273;28;20033;-55
2024/02/06 05:36:18;;;;;;;7.40;3.22;;;;;;;;;;5052651;28;20084;-55
2024/02/06 05:38:43;;;;;;;7.93;3.30;;;;;;;;;;5037346;28;20377;-55
2024/02/06 05:41:15;;;;;;;6.32;3.42;;;;;;;;;;5019554;28;20095;-55
2024/02/06 05:43:40;;;;;;;7.88;3.08;;;;;;;;;;5037481;28;20464;-55
2024/02/06 05:46:06;;;;;;;7.05;3.03;;;;;;;;;;5037166;28;20053;-55
2024/02/06 05:48:31;;;;;;;10.43;3.45;;;;;;;;;;5037390;28;20034;-55
2024/02/06 05:50:57;;;;;;;5.68;3.05;;;;;;;;;;5037370;28;20531;-55
2024/02/06 05:53:22;;;;;;;5.28;2.88;;;;;;;;;;5036984;28;20144;-55
2024/02/06 05:55:48;;;;;;;5.35;2.72;;;;;;;;;;5036894;28;20045;-55
2024/02/06 05:58:14;;;;;;;4.93;2.60;;;;;;;;;;5037474;28;20035;-55
2024/02/06 06:00:39;;;;;;;5.93;2.75;;;;;;;;;;5019247;28;20108;-55
2024/02/06 06:03:05;;;;;;;3.50;2.47;;;;;;;;;;5036818;28;20064;-55
2024/02/06 06:05:30;;;;;;;9.13;3.33;;;;;;;;;;5037327;28;20028;-55
2024/02/06 06:07:55;;;;;;;6.72;2.50;;;;;;;;;;5052502;28;20079;-55
2024/02/06 06:10:21;;;;;;;5.70;2.75;;;;;;;;;;5036948;28;20026;-55
2024/02/06 06:12:46;;;;;;;7.15;3.60;;;;;;;;;;5052047;28;20074;-55
2024/02/06 06:15:12;;;;;;;5.28;2.42;;;;;;;;;;5036544;28;20116;-55
2024/02/06 06:17:37;;;;;;;7.22;2.75;;;;;;;;;;5036827;28;20036;-55
2024/02/06 06:20:03;;;;;;;5.20;2.85;;;;;;;;;;5018754;28;20025;-54
2024/02/06 06:22:28;;;;;;;5.63;2.83;;;;;;;;;;5037009;28;20034;-55
2024/02/06 06:24:54;;;;;;;8.32;2.95;;;;;;;;;;5036694;28;20037;-55
2024/02/06 06:27:19;;;;;;;7.05;3.00;;;;;;;;;;5036632;28;20030;-55
2024/02/06 06:29:46;;;;;;;6.78;2.72;;;;;;;;;;5036931;28;20045;-55
2024/02/06 06:32:11;;;;;;;4.63;2.17;;;;;;;;;;5035346;28;20116;-55
2024/02/06 06:34:37;;;;;;;5.63;2.95;;;;;;;;;;5034832;28;20117;-56
2024/02/06 06:37:03;;;;;;;6.60;2.60;;;;;;;;;;5034840;28;20025;-55
2024/02/06 06:39:29;;;;;;;7.30;3.25;;;;;;;;;;5034042;28;20024;-56
2024/02/06 06:41:54;;;;;;;6.95;2.92;;;;;;;;;;5034082;28;20121;-55
2024/02/06 06:44:19;;;;;;;7.53;3.03;;;;;;;;;;5032225;28;20374;-55
2024/02/06 06:46:46;;;;;;;5.22;2.58;;;;;;;;;;5031496;28;20018;-55
2024/02/06 06:49:12;;;;;;;6.43;2.40;;;;;;;;;;5034068;28;20026;-55
2024/02/06 06:51:37;;;;;;;4.88;3.30;;;;;;;;;;5033266;28;20416;-55
2024/02/06 06:54:02;;;;;;;5.10;2.53;;;;;;;;;;5031858;28;20021;-55
2024/02/06 06:56:28;;;;;;;3.45;2.22;;;;;;;;;;5014109;28;20029;-55
2024/02/06 06:58:53;;;;;;;6.68;2.60;;;;;;;;;;5033609;28;20130;-55
2024/02/06 07:01:18;;;;;;;4.40;2.20;;;;;;;;;;5033710;28;20014;-55
2024/02/06 07:03:44;;;;;;;6.60;2.55;;;;;;;;;;5033665;28;20064;-55
2024/02/06 07:06:10;;;;;;;4.80;2.13;;;;;;;;;;5033782;28;20022;-55
2024/02/06 07:08:35;;;;;;;8.63;2.15;;;;;;;;;;5035907;28;20021;-55
2024/02/06 07:11:01;;;;;;;3.67;2.78;;;;;;;;;;5035565;28;20030;-55
2024/02/06 07:13:27;;;;;;;5.97;2.67;;;;;;;;;;5036097;28;20029;-55
2024/02/06 07:15:53;;;;;;;3.20;2.38;;;;;;;;;;5035659;28;20120;-55
2024/02/06 07:18:18;;;;;;;4.53;2.33;;;;;;;;;;5035425;28;20030;-55
2024/02/06 07:20:44;;;;;;;6.20;2.35;;;;;;;;;;5050769;28;20033;-55
2024/02/06 07:23:09;;;;;;;4.20;2.28;;;;;;;;;;5035617;28;20017;-55
2024/02/06 07:25:34;;;;;;;4.80;2.17;;;;;;;;;;5018320;28;20033;-55
2024/02/06 07:28:03;;;;;;;4.53;2.30;;;;;;;;;;5035805;28;20037;-55
2024/02/06 07:30:28;;;;;;;6.53;2.25;;;;;;;;;;5035488;28;20042;-56
2024/02/06 07:32:54;;;;;;;7.20;2.28;;;;;;;;;;5035684;28;20113;-55
2024/02/06 07:35:19;;;;;;;4.28;2.35;;;;;;;;;;5035055;28;20029;-55
2024/02/06 07:37:45;;;;;;;6.00;2.00;;;;;;;;;;5035067;28;20051;-55
2024/02/06 07:40:10;;;;;;;5.45;2.08;;;;;;;;;;5035059;28;20049;-55
2024/02/06 07:42:35;;;;;;;2.35;1.80;;;;;;;;;;5034868;28;20170;-55
2024/02/06 07:45:01;;;;;;;6.22;2.22;;;;;;;;;;5035451;28;20040;-55
2024/02/06 07:47:26;;;;;;;3.67;2.00;;;;;;;;;;5050295;28;20064;-55
2024/02/06 07:49:51;;;;;;;6.28;2.17;;;;;;;;;;5034813;28;20033;-55
2024/02/06 07:52:17;;;;;;;3.17;2.28;;;;;;;;;;5035032;28;20033;-55
2024/02/06 07:54:43;;;;;;;3.60;2.22;;;;;;;;;;5034924;28;20017;-55
2024/02/06 07:57:08;;;;;;;7.75;2.83;;;;;;;;;;5034590;28;20095;-55
2024/02/06 07:59:33;;;;;;;3.97;2.30;;;;;;;;;;5034629;28;20103;-55
2024/02/06 08:01:59;;;;;;;3.33;1.55;;;;;;;;;;5034886;28;20029;-55
2024/02/06 08:04:24;;;;;;;5.88;2.67;;;;;;;;;;5035137;28;20118;-55
2024/02/06 08:06:49;;;;;;;6.43;2.17;;;;;;;;;;5034513;28;20420;-55
2024/02/06 08:09:16;;;;;;;6.28;2.88;;;;;;;;;;5034504;28;20523;-55
2024/02/06 08:11:41;;;;;;;6.82;2.45;;;;;;;;;;5034687;28;20088;-55
2024/02/06 08:14:10;;;;;;;4.40;3.03;;;;;;;;;;5034837;28;20033;-55
2024/02/06 08:16:36;;;;;;;2.97;2.17;;;;;;;;;;5034364;28;20116;-55
2024/02/06 08:19:01;;;;;;;6.80;3.00;;;;;;;;;;5034840;28;20112;-55
2024/02/06 08:21:26;;;;;;;3.40;2.35;;;;;;;;;;5034802;28;20025;-55
2024/02/06 08:23:52;;;;;;;9.10;3.63;;;;;;;;;;5034215;28;20108;-55
2024/02/06 08:26:18;;;;;;;5.68;3.28;;;;;;;;;;5034470;28;20145;-55
2024/02/06 08:28:45;;;;;;;3.25;1.50;;;;;;;;;;5034141;28;20461;-55
2024/02/06 08:31:10;;;;;;;6.82;3.72;;;;;;;;;;5034344;28;20080;-55
2024/02/06 08:33:36;;;;;;;3.67;1.83;;;;;;;;;;5034299;28;20033;-55
2024/02/06 08:36:01;;;;;;;8.20;3.17;;;;;;;;;;5034201;28;20026;-55
2024/02/06 08:38:27;;;;;;;5.40;3.05;;;;;;;;;;5033941;28;20017;-55
2024/02/06 08:40:52;;;;;;;7.50;3.05;;;;;;;;;;5033752;28;20060;-55
2024/02/06 08:43:18;;;;;;;5.50;3.03;;;;;;;;;;5034434;28;20036;-55
2024/02/06 08:45:44;;;;;;;1.15;0.93;;;;;;;;;;5033750;28;20049;-55
2024/02/06 08:48:09;;;;;;;4.32;2.50;;;;;;;;;;5033803;28;20029;-55
2024/02/06 08:50:35;;;;;;;5.80;2.65;;;;;;;;;;5033806;28;20037;-54
2024/02/06 08:53:01;;;;;;;4.50;2.30;;;;;;;;;;5033756;28;20029;-55
2024/02/06 08:55:26;;;;;;;3.88;2.08;;;;;;;;;;5033655;28;20115;-54
2024/02/06 08:57:51;;;;;;;7.40;2.80;;;;;;;;;;5049078;28;20022;-55
2024/02/06 09:00:17;;;;;;;6.80;2.65;;;;;;;;;;5033624;28;20026;-54
2024/02/06 09:02:43;;;;;;;0.73;0.73;;;;;;;;;;5033650;28;20064;-55
2024/02/06 09:05:08;;;;;;;3.33;2.50;;;;;;;;;;5033631;28;20468;-54
2024/02/06 09:07:33;;;;;;;1.48;1.25;;;;;;;;;;5033577;28;20056;-55
2024/02/06 09:10:00;;;;;;;1.35;1.13;;;;;;;;;;5048087;28;20041;-55
2024/02/06 09:12:25;;;;;;;2.05;1.42;;;;;;;;;;5034087;28;20360;-55
2024/02/06 09:14:51;;;;;;;9.70;2.72;;;;;;;;;;5033441;28;20484;-55
2024/02/06 09:17:16;;;;;;;4.93;1.85;;;;;;;;;;5033738;28;20036;-54
2024/02/06 09:19:41;;;;;;;2.33;1.98;;;;;;;;;;5033492;28;20528;-55
2024/02/06 09:22:07;;;;;;;3.60;1.98;;;;;;;;;;5033484;28;20454;-55
2024/02/06 09:24:32;;;;;;;8.75;3.50;;;;;;;;;;5033683;28;20042;-54
2024/02/06 09:26:58;;;;;;;4.80;2.65;;;;;;;;;;5033414;28;20029;-54
2024/02/06 09:29:23;;;;;;;7.82;3.50;;;;;;;;;;5048840;28;20446;-55
2024/02/06 09:31:49;;;;;;;5.20;1.73;;;;;;;;;;5033609;28;20029;-54
2024/02/06 09:34:14;;;;;;;5.35;2.85;;;;;;;;;;5033307;28;20507;-54
2024/02/06 09:36:42;;;;;;;2.03;1.10;;;;;;;;;;5033607;28;20018;-55
2024/02/06 09:39:08;;;;;;;1.98;1.40;;;;;;;;;;5033296;28;20034;-54
2024/02/06 09:41:36;;;;;;;6.15;3.13;;;;;;;;;;5015686;28;20045;-54
2024/02/06 09:44:02;;;;;;;6.22;1.88;;;;;;;;;;5033231;28;20026;-54
2024/02/06 09:46:27;;;;;;;7.80;3.10;;;;;;;;;;5033520;28;20389;-54
2024/02/06 09:48:53;;;;;;;3.97;1.55;;;;;;;;;;5048610;28;20029;-54
2024/02/06 09:51:19;;;;;;;5.00;2.35;;;;;;;;;;5033483;28;20017;-55
2024/02/06 09:53:45;;;;;;;5.85;3.05;;;;;;;;;;5048486;28;20392;-55
2024/02/06 09:56:11;;;;;;;2.75;2.42;;;;;;;;;;5033037;28;20106;-55
2024/02/06 09:58:37;;;;;;;4.65;3.03;;;;;;;;;;5033143;28;20056;-55
2024/02/06 10:01:04;;;;;;;0.82;0.77;;;;;;;;;;5033371;28;20033;-55
2024/02/06 10:03:31;;;;;;;6.68;3.65;;;;;;;;;;5032632;28;20034;-55
2024/02/06 10:05:58;;;;;;;5.68;2.05;;;;;;;;;;5033632;28;20037;-55
2024/02/06 10:08:23;;;;;;;6.53;3.25;;;;;;;;;;5015345;28;20061;-55
2024/02/06 10:10:49;;;;;;;4.43;2.63;;;;;;;;;;5033279;28;20053;-55
2024/02/06 10:13:15;;;;;;;7.30;3.28;;;;;;;;;;5048339;28;20042;-55
2024/02/06 10:15:40;;;;;;;6.78;2.55;;;;;;;;;;5032873;28;20033;-55
2024/02/06 10:18:06;;;;;;;6.53;3.20;;;;;;;;;;5032911;28;20021;-55
2024/02/06 10:20:44;;;;;;;6.22;2.78;;;;;;;;;;5034067;28;20025;-55
2024/02/06 10:23:30;;;;;;;9.52;2.78;;;;;;;;;;5058093;22;20110;-63
2024/02/06 10:26:02;;;;;;;7.68;3.03;;;;;;;;;;5061346;23;20050;-54
2024/02/06 10:28:28;;;;;;;6.70;3.65;;;;;;;;;;5064619;23;20426;-54
2024/02/06 10:30:55;;;;;;;2.72;1.15;;;;;;;;;;5051001;23;20061;-62
2024/02/06 10:33:20;;;;;;;8.13;3.17;;;;;;;;;;5067564;23;20054;-62
2024/02/06 10:35:45;;;;;;;2.38;1.92;;;;;;;;;;5016366;28;20040;-63
2024/02/06 10:38:15;;;;;;;4.38;2.92;;;;;;;;;;5016695;28;20121;-63
2024/02/06 10:40:41;;;;;;;5.05;2.95;;;;;;;;;;5016624;28;20382;-62
2024/02/06 10:43:07;;;;;;;5.85;3.03;;;;;;;;;;4998752;28;20480;-63
2024/02/06 10:45:33;;;;;;;6.13;3.40;;;;;;;;;;5016284;28;20112;-63
2024/02/06 10:47:59;;;;;;;6.03;3.10;;;;;;;;;;5016507;28;20069;-62
2024/02/06 10:50:28;;;;;;;5.95;4.25;;;;;;;;;;5016463;28;20073;-63
2024/02/06 10:52:54;;;;;;;7.82;4.00;;;;;;;;;;5016723;28;20088;-63
2024/02/06 10:55:21;;;;;;;7.25;3.10;;;;;;;;;;5015958;28;20037;-63
2024/02/06 10:57:46;;;;;;;6.07;3.17;;;;;;;;;;5016311;28;20030;-63
2024/02/06 11:00:17;;;;;;;7.82;3.38;;;;;;;;;;5016008;28;20037;-63
2024/02/06 11:02:43;;;;;;;9.20;3.50;;;;;;;;;;5016221;28;20045;-62
2024/02/06 11:05:17;;;;;;;1.60;0.95;;;;;;;;;;5015868;28;20026;-63
2024/02/06 11:08:03;;;;;;;1.80;1.38;;;;;;;;;;5016175;28;20034;-62
2024/02/06 11:10:36;;;;;;;3.03;1.85;;;;;;;;;;4988039;28;20052;-63
2024/02/06 11:13:07;;;;;;;5.28;3.05;;;;;;;;;;5016032;28;20386;-62
2024/02/06 11:15:38;;;;;;;3.72;2.65;;;;;;;;;;4998489;28;20040;-63
2024/02/06 11:18:03;;;;;;;;;;;;;;;;;;5016385;28;20025;-63
2024/02/06 11:20:30;;;;;;;3.50;2.47;;;;;;;;;;4998050;28;19909;-62
2024/02/06 11:22:58;;;;;;;4.65;1.80;;;;;;;;;;5015866;28;20026;-62
2024/02/06 11:25:27;;;;;;;5.22;2.78;;;;;;;;;;4998012;28;20030;-62
2024/02/06 11:27:55;;;;;;;5.13;2.88;;;;;;;;;;5015818;28;20120;-63
2024/02/06 11:30:21;;;;;;;3.22;1.98;;;;;;;;;;5015735;28;20026;-62
2024/02/06 11:32:47;;;;;;;6.40;2.95;;;;;;;;;;5014946;28;20124;-63
2024/02/06 11:35:12;;;;;;;7.07;2.53;;;;;;;;;;5015157;28;20136;-62
2024/02/06 11:37:37;;;;;;;6.45;2.92;;;;;;;;;;5015570;28;20456;-63
2024/02/06 11:40:05;;;;;;;4.68;3.15;;;;;;;;;;5015558;28;20034;-62
2024/02/06 11:42:34;;;;;;;11.73;3.38;;;;;;;;;;5015471;28;20030;-63
2024/02/06 11:45:17;;;;;;;7.22;3.33;;;;;;;;;;5015401;28;20033;-62
2024/02/06 11:47:56;;;;;;;6.68;3.83;;;;;;;;;;5015412;28;20382;-63
2024/02/06 11:50:45;;;;;;;6.95;3.42;;;;;;;;;;5015387;28;20108;-62
2024/02/06 11:53:14;;;;;;;6.10;2.42;;;;;;;;;;5007337;28;20042;-63
2024/02/06 11:55:50;;;;;;;3.70;2.47;;;;;;;;;;5014922;28;20029;-63
2024/02/06 11:58:15;;;;;;;6.97;3.30;;;;;;;;;;5014913;28;20109;-63
2024/02/06 12:00:41;;;;;;;5.82;2.58;;;;;;;;;;5015177;28;20526;-62
2024/02/06 12:03:06;;;;;;;5.70;3.55;;;;;;;;;;5014815;28;20034;-62
2024/02/06 12:05:44;;;;;;;2.60;2.10;;;;;;;;;;5014795;28;20055;-63
2024/02/06 12:08:12;;;;;;;5.45;2.88;;;;;;;;;;5014993;28;20452;-63
2024/02/06 12:10:38;;;;;;;5.30;3.60;;;;;;;;;;5014679;28;20033;-63
2024/02/06 12:13:05;;;;;;;5.68;2.22;;;;;;;;;;5014956;28;20034;-62
2024/02/06 12:15:38;;;;;;;6.10;3.20;;;;;;;;;;5014803;28;20065;-62
2024/02/06 12:18:08;;;;;;;4.32;2.10;;;;;;;;;;5015138;28;20044;-62
2024/02/06 12:20:35;;;;;;;5.25;2.38;;;;;;;;;;5014566;28;20076;-62
2024/02/06 12:23:06;;;;;;;4.82;2.92;;;;;;;;;;5013901;28;20040;-62
2024/02/06 12:25:36;;;;;;;7.22;4.43;;;;;;;;;;5014477;28;20030;-62
2024/02/06 12:28:03;;;;;;;8.77;2.75;;;;;;;;;;5014399;28;20037;-62
2024/02/06 12:30:29;;;;;;;8.05;3.28;;;;;;;;;;5014667;28;20025;-62
2024/02/06 12:32:58;;;;;;;6.68;3.50;;;;;;;;;;5014339;28;20600;-62
2024/02/06 12:35:24;;;;;;;7.75;3.67;;;;;;;;;;5014225;28;20033;-63
2024/02/06 12:37:50;;;;;;;3.33;2.25;;;;;;;;;;5014228;28;20025;-62
2024/02/06 12:40:19;;;;;;;4.78;2.30;;;;;;;;;;5014236;28;20061;-62
2024/02/06 12:42:47;;;;;;;4.97;2.72;;;;;;;;;;5014466;28;20477;-63
2024/02/06 12:45:16;;;;;;;4.93;2.38;;;;;;;;;;5014676;28;20061;-62
2024/02/06 12:47:42;;;;;;;6.18;3.03;;;;;;;;;;5014135;28;20029;-62
2024/02/06 12:50:11;;;;;;;4.38;3.08;;;;;;;;;;5014065;28;20528;-62
2024/02/06 12:52:40;;;;;;;4.85;2.83;;;;;;;;;;5014340;28;20116;-62
2024/02/06 12:55:06;;;;;;;3.67;2.88;;;;;;;;;;5014219;28;20033;-63
2024/02/06 12:57:32;;;;;;;6.95;2.97;;;;;;;;;;5013999;28;20080;-63
2024/02/06 12:59:57;;;;;;;4.25;2.22;;;;;;;;;;5014109;28;20042;-63
2024/02/06 13:02:23;;;;;;;2.42;1.98;;;;;;;;;;5014196;28;20030;-62
2024/02/06 13:04:48;;;;;;;4.47;2.55;;;;;;;;;;5014414;28;20038;-63
2024/02/06 13:07:20;;;;;;;3.58;2.40;;;;;;;;;;5013830;28;20060;-62
2024/02/06 13:09:45;;;;;;;2.92;1.63;;;;;;;;;;5014363;28;20032;-63
2024/02/06 13:12:11;;;;;;;2.55;1.80;;;;;;;;;;5013810;28;20469;-62
2024/02/06 13:14:36;;;;;;;5.55;2.30;;;;;;;;;;5014043;28;20427;-62
2024/02/06 13:17:02;;;;;;;4.30;2.28;;;;;;;;;;5012501;28;20053;-62
2024/02/06 13:19:29;;;;;;;2.15;1.77;;;;;;;;;;4996737;28;20084;-62
2024/02/06 13:21:57;;;;;;;6.22;2.20;;;;;;;;;;5014049;28;20117;-62
2024/02/06 13:24:23;;;;;;;6.80;2.75;;;;;;;;;;5014036;28;20030;-62
2024/02/06 13:26:49;;;;;;;3.75;2.33;;;;;;;;;;5013663;28;20454;-62
2024/02/06 13:29:14;;;;;;;5.18;2.22;;;;;;;;;;5013975;28;20041;-62
2024/02/06 13:31:39;;;;;;;3.30;2.33;;;;;;;;;;5013884;28;20025;-62
2024/02/06 13:34:05;;;;;;;2.08;1.85;;;;;;;;;;5012845;28;20496;-62
2024/02/06 13:36:31;;;;;;;6.15;3.60;;;;;;;;;;5013001;28;20032;-62
2024/02/06 13:38:56;;;;;;;5.95;3.03;;;;;;;;;;5013004;28;20018;-63
2024/02/06 13:41:22;;;;;;;4.57;1.85;;;;;;;;;;5012602;28;20115;-62
2024/02/06 13:43:47;;;;;;;4.13;2.50;;;;;;;;;;5010457;28;20018;-62
2024/02/06 13:46:12;;;;;;;5.03;2.75;;;;;;;;;;5011825;28;20033;-62
2024/02/06 13:48:38;;;;;;;6.45;2.80;;;;;;;;;;5012287;28;20026;-62
2024/02/06 13:51:03;;;;;;;7.90;3.35;;;;;;;;;;5013738;28;20034;-62
2024/02/06 13:53:29;;;;;;;6.05;3.40;;;;;;;;;;5013716;28;20030;-63
2024/02/06 13:55:55;;;;;;;5.78;3.30;;;;;;;;;;5015179;28;20112;-62
2024/02/06 13:58:20;;;;;;;4.85;3.05;;;;;;;;;;5016979;28;20022;-62
2024/02/06 14:00:47;;;;;;;5.53;2.75;;;;;;;;;;5017553;28;20030;-62
2024/02/06 14:03:12;;;;;;;4.38;2.13;;;;;;;;;;5017246;28;20022;-62
2024/02/06 14:05:39;;;;;;;6.53;2.78;;;;;;;;;;5016948;28;20087;-63
2024/02/06 14:08:05;;;;;;;5.40;2.58;;;;;;;;;;5016828;28;20118;-63
2024/02/06 14:10:31;;;;;;;1.88;1.70;;;;;;;;;;5016787;28;20073;-63
2024/02/06 14:12:57;;;;;;;4.65;2.67;;;;;;;;;;5016863;28;20034;-63
2024/02/06 14:15:23;;;;;;;3.80;2.47;;;;;;;;;;4999047;28;20041;-63
2024/02/06 14:17:48;;;;;;;5.25;2.83;;;;;;;;;;5016082;28;20100;-63
2024/02/06 14:20:14;;;;;;;5.55;3.17;;;;;;;;;;5016390;28;20113;-63
2024/02/06 14:22:40;;;;;;;5.60;3.08;;;;;;;;;;5016614;28;20061;-63
2024/02/06 14:25:06;;;;;;;6.15;2.97;;;;;;;;;;5016933;28;20064;-62
2024/02/06 14:27:31;;;;;;;0.98;0.80;;;;;;;;;;4999662;28;20464;-64
2024/02/06 14:29:59;;;;;;;5.00;2.92;;;;;;;;;;5016732;28;20030;-63
2024/02/06 14:32:27;;;;;;;4.88;3.28;;;;;;;;;;5016531;28;20044;-63
2024/02/06 14:34:53;;;;;;;7.28;3.38;;;;;;;;;;5031611;28;20045;-63
2024/02/06 14:37:18;;;;;;;4.57;2.95;;;;;;;;;;5030229;28;20057;-63
2024/02/06 14:39:43;;;;;;;7.78;3.40;;;;;;;;;;5036293;28;20040;-63